Time;durP1;ratioP1;P1;durP2;ratioP2;P2;SDS_P1;SDS_P2;PMS_P1;PMS_P2;Temp;Humidity;BMP_temperature;BMP_pressure;BME280_temperature;BME280_humidity;BME280_pressure;Samples;Min_cycle;Max_cycle;Signal;HPM_P1;HPM_P2
2022/07/27 00:01:08;;;;;;;12.53;4.63;;;27.90;69.20;;;;;;5038434;28;20203;-73
2022/07/27 00:03:36;;;;;;;6.80;4.47;;;27.80;69.20;;;;;;5039199;28;20602;-73
2022/07/27 00:06:03;;;;;;;5.20;4.77;;;27.80;69.40;;;;;;5043533;28;20671;-73
2022/07/27 00:08:30;;;;;;;6.47;4.60;;;27.80;69.60;;;;;;5050164;28;20198;-73
2022/07/27 00:10:58;;;;;;;5.77;4.27;;;27.80;69.60;;;;;;5047389;28;20285;-73
2022/07/27 00:13:25;;;;;;;5.40;4.60;;;27.70;69.70;;;;;;5060916;28;20199;-73
2022/07/27 00:15:53;;;;;;;4.97;4.40;;;27.70;69.80;;;;;;5046381;28;20217;-73
2022/07/27 00:18:20;;;;;;;4.70;3.97;;;27.60;69.70;;;;;;5049012;28;20213;-73
2022/07/27 00:20:47;;;;;;;5.67;3.83;;;27.70;69.90;;;;;;5039377;28;20627;-73
2022/07/27 00:23:14;;;;;;;6.23;4.93;;;27.60;70.00;;;;;;5047282;28;20209;-73
2022/07/27 00:25:41;;;;;;;6.10;4.03;;;27.60;69.80;;;;;;5045846;28;20218;-74
2022/07/27 00:28:08;;;;;;;5.17;4.17;;;27.60;69.80;;;;;;5047291;28;20238;-74
2022/07/27 00:30:35;;;;;;;6.37;3.53;;;27.60;69.70;;;;;;5042513;28;20277;-74
2022/07/27 00:33:04;;;;;;;4.30;3.90;;;27.60;69.60;;;;;;5049152;28;20211;-74
2022/07/27 00:35:32;;;;;;;4.27;3.87;;;27.60;69.40;;;;;;5043848;28;20221;-74
2022/07/27 00:38:01;;;;;;;6.20;4.37;;;27.60;69.00;;;;;;5052649;28;20232;-74
2022/07/27 00:40:28;;;;;;;4.60;3.87;;;27.60;68.60;;;;;;5047907;28;20208;-74
2022/07/27 00:42:55;;;;;;;7.03;4.70;;;27.60;68.40;;;;;;5045367;28;20241;-74
2022/07/27 00:45:22;;;;;;;8.90;4.07;;;27.60;67.90;;;;;;5046048;28;20215;-74
2022/07/27 00:47:50;;;;;;;8.43;4.10;;;27.50;67.80;;;;;;5046353;28;20209;-74
2022/07/27 00:50:21;;;;;;;6.30;4.27;;;27.50;67.50;;;;;;5044368;28;20529;-74
2022/07/27 00:52:48;;;;;;;6.73;4.17;;;27.50;67.30;;;;;;5044000;28;20215;-74
2022/07/27 00:55:16;;;;;;;5.73;3.90;;;27.50;67.00;;;;;;5045938;28;20248;-74
2022/07/27 00:57:43;;;;;;;6.27;4.17;;;27.50;66.80;;;;;;5042936;28;20643;-74
2022/07/27 01:00:27;;;;;;;4.20;3.80;;;27.50;66.40;;;;;;5044063;28;20206;-74
2022/07/27 01:02:54;;;;;;;5.23;4.57;;;27.40;66.80;;;;;;5044912;28;20217;-74
2022/07/27 01:05:24;;;;;;;4.87;4.30;;;27.50;66.20;;;;;;5043197;28;20220;-74
2022/07/27 01:08:05;;;;;;;5.00;4.00;;;27.50;66.10;;;;;;5043620;28;20281;-74
2022/07/27 01:10:33;;;;;;;4.47;3.70;;;27.50;65.90;;;;;;5044164;28;20229;-74
2022/07/27 01:13:00;;;;;;;4.93;3.77;;;27.40;65.70;;;;;;5046927;28;20526;-74
2022/07/27 01:15:28;;;;;;;10.70;4.27;;;27.40;64.70;;;;;;5040604;28;20208;-74
2022/07/27 01:17:55;;;;;;;7.40;3.67;;;27.30;64.20;;;;;;5044453;28;20232;-74
2022/07/27 01:20:22;;;;;;;4.23;3.63;;;27.30;64.00;;;;;;5045009;28;20215;-74
2022/07/27 01:22:49;;;;;;;6.07;3.47;;;27.30;63.90;;;;;;5043767;28;20630;-74
2022/07/27 01:25:16;;;;;;;4.83;3.40;;;27.30;63.90;;;;;;5043931;28;20239;-74
2022/07/27 01:27:43;;;;;;;3.90;3.33;;;27.20;63.60;;;;;;5023412;28;20574;-74
2022/07/27 01:30:26;;;;;;;5.73;3.67;;;27.20;63.30;;;;;;5039672;28;20216;-74
2022/07/27 01:33:01;;;;;;;5.27;3.73;;;27.30;63.00;;;;;;5042092;28;20210;-74
2022/07/27 01:35:28;;;;;;;65.93;9.17;;;27.30;63.10;;;;;;5078926;28;20227;-75
2022/07/27 01:37:56;;;;;;;66.70;7.40;;;27.20;62.90;;;;;;5045576;28;20298;-75
2022/07/27 01:40:23;;;;;;;25.97;8.23;;;27.00;64.80;;;;;;5044722;28;20216;-71
2022/07/27 01:42:50;;;;;;;24.90;8.63;;;26.70;70.00;;;;;;5047371;28;20243;-71
2022/07/27 01:45:18;;;;;;;16.53;7.07;;;26.20;72.90;;;;;;5040660;28;20225;-73
2022/07/27 02:00:26;;;;;;;7.20;3.70;;;25.00;78.30;;;;;;5098370;27;20543;-71
2022/07/27 02:02:54;;;;;;;8.50;4.57;;;23.60;85.20;;;;;;5082245;28;20202;-71
2022/07/27 02:05:21;;;;;;;11.70;5.60;;;23.30;85.40;;;;;;5082534;28;20204;-71
2022/07/27 02:07:48;;;;;;;11.90;5.93;;;23.10;86.10;;;;;;5078771;28;20201;-73
2022/07/27 02:10:15;;;;;;;7.47;5.50;;;22.90;87.00;;;;;;5078249;28;20212;-73
2022/07/27 02:12:43;;;;;;;8.13;5.70;;;22.80;87.80;;;;;;5084707;28;20201;-72
2022/07/27 02:15:13;;;;;;;15.03;6.97;;;22.70;88.50;;;;;;5082071;28;20186;-74
2022/07/27 02:17:42;;;;;;;17.67;5.63;;;22.60;88.90;;;;;;5084459;28;20815;-74
2022/07/27 02:20:13;;;;;;;8.00;5.57;;;22.60;89.10;;;;;;5081274;28;20289;-74
2022/07/27 02:22:40;;;;;;;10.20;6.30;;;22.60;89.50;;;;;;5086464;28;20308;-74
2022/07/27 02:25:09;;;;;;;7.47;4.67;;;22.60;89.70;;;;;;5076197;28;20232;-74
2022/07/27 02:27:36;;;;;;;7.47;3.63;;;22.60;89.00;;;;;;5080375;28;20211;-73
2022/07/27 02:30:04;;;;;;;4.17;2.67;;;22.50;88.00;;;;;;5079103;28;20217;-73
2022/07/27 02:32:31;;;;;;;7.13;3.23;;;22.50;87.40;;;;;;5081542;28;20541;-73
2022/07/27 02:34:59;;;;;;;6.23;4.03;;;22.50;87.40;;;;;;5074577;28;20198;-73
2022/07/27 02:37:29;;;;;;;6.40;3.67;;;22.50;87.20;;;;;;5079047;28;20212;-73
2022/07/27 02:39:56;;;;;;;6.53;3.90;;;22.50;87.90;;;;;;5078717;28;20206;-73
2022/07/27 02:42:24;;;;;;;6.63;4.47;;;22.50;87.20;;;;;;5080374;28;20190;-73
2022/07/27 02:44:51;;;;;;;9.17;4.47;;;22.50;87.60;;;;;;5080522;28;20201;-74
2022/07/27 02:47:18;;;;;;;6.07;3.93;;;22.50;87.60;;;;;;5074043;28;20198;-73
2022/07/27 02:49:45;;;;;;;6.97;3.93;;;22.50;87.70;;;;;;5077424;28;20217;-73
2022/07/27 02:52:12;;;;;;;4.13;2.80;;;22.40;86.80;;;;;;5081147;28;20202;-73
2022/07/27 02:54:40;;;;;;;3.63;2.70;;;22.40;86.50;;;;;;5083786;28;20198;-73
2022/07/27 02:57:07;;;;;;;8.00;2.90;;;22.40;86.30;;;;;;5078710;28;20228;-73
2022/07/27 02:59:34;;;;;;;4.23;3.10;;;22.50;86.20;;;;;;5068948;28;20237;-74
2022/07/27 03:02:01;;;;;;;4.37;2.70;;;22.50;86.90;;;;;;5061985;28;20210;-73
2022/07/27 03:04:29;;;;;;;3.47;2.90;;;22.50;86.20;;;;;;5064685;28;20218;-73
2022/07/27 03:06:56;;;;;;;4.93;3.03;;;22.60;86.30;;;;;;5066088;28;20202;-73
2022/07/27 03:09:23;;;;;;;2.63;2.43;;;22.60;86.00;;;;;;5058496;28;20222;-73
2022/07/27 03:11:59;;;;;;;6.23;3.30;;;22.70;85.80;;;;;;5078777;28;20212;-74
2022/07/27 03:14:26;;;;;;;7.50;3.33;;;22.70;85.70;;;;;;5061790;28;20280;-74
2022/07/27 03:16:53;;;;;;;4.20;3.37;;;22.70;86.10;;;;;;5062037;28;20206;-74
2022/07/27 03:19:20;;;;;;;5.93;3.10;;;22.70;86.30;;;;;;5068971;28;20203;-74
2022/07/27 03:21:54;;;;;;;6.93;3.33;;;22.80;87.20;;;;;;5073569;28;20210;-74
2022/07/27 03:24:21;;;;;;;5.53;3.60;;;22.90;87.80;;;;;;5064953;28;20206;-74
2022/07/27 03:26:48;;;;;;;4.77;3.07;;;22.90;88.70;;;;;;5071771;28;20210;-73
2022/07/27 03:29:15;;;;;;;7.37;3.40;;;23.00;88.70;;;;;;5068138;28;20210;-73
2022/07/27 03:31:44;;;;;;;5.60;3.50;;;23.00;88.20;;;;;;5063492;28;20194;-73
2022/07/27 03:34:12;;;;;;;4.33;3.30;;;23.10;87.80;;;;;;5064245;28;20225;-73
2022/07/27 03:36:40;;;;;;;4.70;3.03;;;23.10;87.60;;;;;;5076467;28;20209;-73
2022/07/27 03:39:07;;;;;;;6.20;3.13;;;23.10;87.40;;;;;;5054657;28;20202;-73
2022/07/27 03:41:34;;;;;;;4.10;3.70;;;23.10;87.20;;;;;;5063186;28;20205;-73
2022/07/27 03:44:01;;;;;;;6.33;3.53;;;23.10;86.90;;;;;;5059469;28;20207;-73
2022/07/27 03:46:28;;;;;;;4.90;3.60;;;23.10;86.60;;;;;;5063089;28;20210;-73
2022/07/27 03:48:56;;;;;;;5.97;3.73;;;23.20;86.80;;;;;;5059587;28;20451;-73
2022/07/27 03:51:23;;;;;;;6.80;3.97;;;23.20;86.70;;;;;;5064082;28;20205;-73
2022/07/27 03:53:50;;;;;;;5.00;3.90;;;23.20;86.50;;;;;;5065728;28;20252;-73
2022/07/27 03:56:17;;;;;;;3.93;3.50;;;23.20;86.30;;;;;;5065244;28;20214;-73
2022/07/27 03:58:45;;;;;;;5.70;3.47;;;23.30;86.20;;;;;;5061517;28;20245;-73
2022/07/27 04:01:12;;;;;;;4.33;3.90;;;23.20;86.30;;;;;;5074046;28;20224;-73
2022/07/27 04:03:39;;;;;;;3.87;3.57;;;23.30;86.50;;;;;;5067027;28;20210;-73
2022/07/27 04:06:10;;;;;;;9.47;4.03;;;23.30;86.60;;;;;;5060457;28;20613;-73
2022/07/27 04:08:37;;;;;;;3.80;3.43;;;23.30;86.60;;;;;;5061537;28;20682;-73
2022/07/27 04:11:05;;;;;;;6.63;4.47;;;23.30;86.90;;;;;;5062212;28;20209;-73
2022/07/27 04:13:33;;;;;;;5.37;3.47;;;23.30;86.90;;;;;;5066249;28;20292;-73
2022/07/27 04:16:04;;;;;;;4.13;3.73;;;23.30;86.60;;;;;;5059016;28;20194;-73
2022/07/27 04:18:31;;;;;;;8.40;4.53;;;23.40;86.60;;;;;;5064240;28;20202;-73
2022/07/27 04:21:00;;;;;;;6.10;4.27;;;23.40;86.80;;;;;;5062573;28;20527;-73
2022/07/27 04:23:28;;;;;;;5.23;4.73;;;23.40;86.90;;;;;;5067898;28;20523;-73
2022/07/27 04:25:59;;;;;;;5.53;4.60;;;23.40;86.80;;;;;;5063332;28;20366;-73
2022/07/27 04:28:26;;;;;;;8.30;4.70;;;23.40;86.50;;;;;;5062006;28;20289;-73
2022/07/27 04:30:53;;;;;;;7.93;4.90;;;23.40;86.50;;;;;;5064903;28;20208;-73
2022/07/27 04:33:20;;;;;;;10.13;4.97;;;23.50;86.80;;;;;;5059967;28;20542;-73
2022/07/27 04:35:47;;;;;;;7.63;5.57;;;23.50;86.90;;;;;;5062517;28;20520;-73
2022/07/27 04:38:14;;;;;;;9.77;5.87;;;23.50;86.60;;;;;;5060656;28;20204;-73
2022/07/27 04:40:42;;;;;;;5.73;5.10;;;23.50;86.50;;;;;;5060189;28;20216;-73
2022/07/27 04:43:09;;;;;;;6.53;5.60;;;23.50;86.70;;;;;;5062019;28;20202;-73
2022/07/27 04:45:38;;;;;;;8.20;6.47;;;23.50;86.80;;;;;;5059709;28;20206;-73
2022/07/27 04:48:06;;;;;;;7.93;6.47;;;23.60;86.90;;;;;;5064060;28;20198;-73
2022/07/27 04:50:41;;;;;;;6.13;5.53;;;23.60;87.10;;;;;;5063119;28;20222;-73
2022/07/27 04:53:09;;;;;;;6.73;5.70;;;23.60;87.10;;;;;;5061949;28;20193;-73
2022/07/27 04:55:40;;;;;;;10.80;6.07;;;23.60;87.00;;;;;;5062754;28;20244;-73
2022/07/27 04:58:08;;;;;;;7.07;5.70;;;23.60;86.70;;;;;;5062676;28;20217;-73
2022/07/27 05:00:35;;;;;;;6.87;5.40;;;23.70;86.70;;;;;;5063024;28;20207;-73
2022/07/27 05:03:03;;;;;;;7.37;6.20;;;23.70;86.30;;;;;;5065207;28;20203;-73
2022/07/27 05:05:30;;;;;;;5.67;5.07;;;23.70;86.20;;;;;;5060834;28;20640;-73
2022/07/27 05:07:58;;;;;;;9.50;6.03;;;23.80;86.30;;;;;;5064683;28;20202;-73
2022/07/27 05:10:25;;;;;;;6.50;5.87;;;23.80;86.10;;;;;;5065326;28;20257;-73
2022/07/27 05:12:53;;;;;;;10.80;6.20;;;23.80;85.90;;;;;;5065253;28;20213;-72
2022/07/27 05:15:20;;;;;;;9.07;5.87;;;23.90;86.10;;;;;;5057787;28;20202;-72
2022/07/27 05:17:48;;;;;;;8.07;5.93;;;23.90;86.10;;;;;;5057698;28;20205;-72
2022/07/27 05:20:15;;;;;;;6.83;6.20;;;23.90;85.40;;;;;;5061336;28;20244;-72
2022/07/27 05:22:43;;;;;;;7.87;6.43;;;24.00;84.70;;;;;;5061174;28;20218;-72
2022/07/27 05:25:10;;;;;;;8.57;6.43;;;23.90;84.10;;;;;;5061325;28;20206;-72
2022/07/27 05:27:37;;;;;;;7.27;6.07;;;23.90;84.90;;;;;;5058088;28;20199;-72
2022/07/27 05:30:23;;;;;;;10.23;6.93;;;23.90;85.10;;;;;;5061257;28;20581;-72
2022/07/27 05:32:50;;;;;;;8.87;6.53;;;24.00;84.60;;;;;;5065216;28;20229;-73
2022/07/27 05:35:18;;;;;;;8.20;7.13;;;23.90;84.60;;;;;;5063919;28;20195;-73
2022/07/27 05:37:45;;;;;;;8.63;6.23;;;24.00;85.00;;;;;;5056604;28;20296;-73
2022/07/27 05:40:12;;;;;;;10.67;6.57;;;24.00;85.30;;;;;;5064074;28;20209;-73
2022/07/27 05:42:43;;;;;;;7.70;6.90;;;24.00;84.50;;;;;;5063963;28;20645;-73
2022/07/27 05:45:10;;;;;;;7.33;5.93;;;24.10;84.40;;;;;;5073370;28;20304;-73
2022/07/27 05:47:38;;;;;;;8.10;7.30;;;24.00;83.50;;;;;;5062512;28;20534;-73
2022/07/27 05:50:06;;;;;;;7.00;5.97;;;24.00;83.90;;;;;;5059089;28;20233;-73
2022/07/27 05:52:33;;;;;;;6.93;5.87;;;23.90;83.60;;;;;;5058465;28;20206;-74
2022/07/27 05:55:01;;;;;;;6.20;5.57;;;23.90;83.80;;;;;;5061242;28;20203;-74
2022/07/27 05:57:28;;;;;;;6.10;4.93;;;23.80;84.00;;;;;;5062857;28;20287;-74
2022/07/27 05:59:57;;;;;;;5.47;4.90;;;23.70;83.90;;;;;;5044042;28;20633;-73
2022/07/27 06:02:26;;;;;;;6.50;4.70;;;23.70;84.10;;;;;;5057413;28;20536;-73
2022/07/27 06:04:53;;;;;;;5.43;3.87;;;23.60;84.10;;;;;;5060591;28;20604;-73
2022/07/27 06:10:07;;;;;;;4.87;4.10;;;23.70;84.10;;;;;;5059871;28;20311;-73
2022/07/27 06:12:42;;;;;;;4.63;4.23;;;23.80;84.30;;;;;;5057471;28;20229;-73
2022/07/27 06:15:11;;;;;;;5.77;4.10;;;23.90;84.30;;;;;;5061389;28;20205;-73
2022/07/27 06:17:38;;;;;;;5.10;4.10;;;24.00;84.80;;;;;;5060389;28;20186;-73
2022/07/27 06:20:07;;;;;;;5.17;4.33;;;24.20;84.80;;;;;;5056652;28;20210;-73
2022/07/27 06:22:49;;;;;;;4.50;4.10;;;24.30;84.20;;;;;;5057523;28;20295;-73
2022/07/27 06:25:18;;;;;;;6.60;4.37;;;24.50;83.00;;;;;;5063088;28;20206;-73
2022/07/27 06:27:45;;;;;;;4.40;4.00;;;24.60;82.20;;;;;;5059759;28;20289;-73
2022/07/27 06:30:15;;;;;;;6.40;4.27;;;24.70;81.50;;;;;;5062203;28;20218;-73
2022/07/27 06:32:42;;;;;;;5.40;4.63;;;24.80;81.80;;;;;;5058876;28;20237;-73
2022/07/27 06:35:10;;;;;;;5.37;4.30;;;24.90;81.60;;;;;;5062361;28;20635;-73
2022/07/27 06:37:51;;;;;;;4.20;3.80;;;25.00;81.10;;;;;;5064565;28;20754;-73
2022/07/27 06:40:19;;;;;;;5.93;3.77;;;25.20;80.70;;;;;;5062207;28;20591;-73
2022/07/27 06:42:47;;;;;;;5.13;4.17;;;25.30;80.10;;;;;;5069330;28;20259;-74
2022/07/27 06:45:15;;;;;;;3.73;3.40;;;25.40;80.00;;;;;;5065235;28;20532;-73
2022/07/27 06:47:42;;;;;;;5.00;3.67;;;25.50;78.70;;;;;;5061789;28;20213;-73
2022/07/27 06:50:20;;;;;;;3.77;3.47;;;25.60;78.10;;;;;;5075780;28;20568;-73
2022/07/27 06:52:48;;;;;;;5.57;3.60;;;25.70;77.20;;;;;;5065224;28;20213;-73
2022/07/27 06:55:15;;;;;;;4.20;3.07;;;25.70;76.10;;;;;;5068058;28;20202;-73
2022/07/27 06:57:43;;;;;;;3.90;3.50;;;25.70;75.30;;;;;;5062885;28;20222;-73
2022/07/27 07:00:11;;;;;;;4.83;3.50;;;25.70;74.00;;;;;;5062951;28;20229;-73
2022/07/27 07:02:53;;;;;;;4.93;3.10;;;25.60;74.30;;;;;;5067819;28;20218;-73
2022/07/27 07:05:21;;;;;;;5.50;3.37;;;25.70;74.30;;;;;;5066159;28;20204;-73
2022/07/27 07:07:49;;;;;;;4.20;3.70;;;25.80;74.70;;;;;;5062756;28;20298;-73
2022/07/27 07:10:17;;;;;;;5.17;3.83;;;25.90;74.50;;;;;;5062068;28;20226;-73
2022/07/27 07:12:46;;;;;;;4.53;3.57;;;26.10;73.80;;;;;;5066587;28;20207;-73
2022/07/27 07:15:15;;;;;;;3.73;3.43;;;26.20;74.00;;;;;;5068244;28;20245;-74
2022/07/27 07:17:42;;;;;;;4.03;3.70;;;26.40;73.50;;;;;;5064329;28;20624;-73
2022/07/27 07:20:10;;;;;;;3.73;3.43;;;26.50;72.10;;;;;;5072191;28;20647;-73
2022/07/27 07:22:37;;;;;;;5.03;3.60;;;26.60;71.20;;;;;;5068127;28;20347;-74
2022/07/27 07:25:05;;;;;;;4.17;3.50;;;26.70;71.10;;;;;;5066892;28;20235;-74
2022/07/27 07:27:32;;;;;;;4.03;3.20;;;26.80;69.60;;;;;;5058025;28;20260;-74
2022/07/27 07:30:00;;;;;;;3.53;3.23;;;26.90;69.00;;;;;;5062570;28;20236;-74
2022/07/27 07:32:29;;;;;;;5.37;3.73;;;27.00;68.10;;;;;;5065221;28;20312;-74
2022/07/27 07:35:00;;;;;;;4.23;3.60;;;27.10;67.60;;;;;;5065134;28;20562;-74
2022/07/27 07:37:27;;;;;;;3.53;3.23;;;27.10;68.10;;;;;;5078323;28;20213;-74
2022/07/27 07:39:59;;;;;;;4.37;3.20;;;27.00;68.00;;;;;;5063367;28;20232;-74
2022/07/27 07:43:01;;;;;;;4.73;3.17;;;27.00;67.30;;;;;;5064359;28;20208;-74
2022/07/27 07:45:31;;;;;;;3.77;3.20;;;26.90;67.00;;;;;;5080009;28;20220;-74
2022/07/27 07:47:58;;;;;;;2.97;2.77;;;26.90;68.60;;;;;;5071153;28;20269;-74
2022/07/27 07:50:26;;;;;;;3.33;3.03;;;27.00;68.20;;;;;;5061420;28;20467;-74
2022/07/27 07:52:54;;;;;;;3.20;3.00;;;27.00;68.40;;;;;;5060961;28;20224;-74
2022/07/27 07:55:23;;;;;;;6.87;2.97;;;27.00;68.10;;;;;;5060446;28;20213;-74
2022/07/27 07:57:51;;;;;;;3.30;3.00;;;27.00;69.50;;;;;;5058931;28;20194;-74
2022/07/27 08:00:20;;;;;;;3.70;3.20;;;27.10;68.50;;;;;;5060986;28;20271;-74
2022/07/27 08:02:50;;;;;;;4.67;3.23;;;27.10;67.20;;;;;;5067373;28;20219;-74
2022/07/27 08:05:19;;;;;;;4.77;2.90;;;27.10;66.90;;;;;;5077396;28;20554;-74
2022/07/27 08:07:47;;;;;;;3.17;2.97;;;27.20;67.50;;;;;;5068069;28;20206;-74
2022/07/27 08:10:15;;;;;;;6.60;3.23;;;27.30;66.60;;;;;;5060584;28;20238;-74
2022/07/27 08:12:46;;;;;;;3.43;3.10;;;27.40;65.90;;;;;;5053360;28;20208;-75
2022/07/27 08:15:15;;;;;;;7.63;4.17;;;27.50;65.10;;;;;;5059871;28;20236;-75
2022/07/27 08:17:43;;;;;;;3.63;3.10;;;27.70;65.40;;;;;;5064972;28;20628;-75
2022/07/27 08:20:11;;;;;;;3.00;2.70;;;27.80;65.80;;;;;;5061154;28;20713;-74
2022/07/27 08:22:39;;;;;;;3.10;2.83;;;28.00;65.20;;;;;;5051210;28;20549;-76
2022/07/27 08:25:08;;;;;;;4.00;2.70;;;28.20;63.60;;;;;;5066394;28;20212;-74
2022/07/27 08:27:36;;;;;;;2.97;2.77;;;28.30;62.30;;;;;;5065137;28;20251;-75
2022/07/27 08:30:08;;;;;;;3.90;3.30;;;28.40;62.20;;;;;;5067409;28;20210;-74
2022/07/27 08:33:05;;;;;;;3.90;3.43;;;28.50;62.10;;;;;;5065346;28;20197;-74
2022/07/27 08:35:33;;;;;;;6.13;4.00;;;28.50;62.10;;;;;;5055814;28;20252;-74
2022/07/27 08:38:03;;;;;;;4.30;3.87;;;28.50;62.40;;;;;;5061650;28;20202;-74
2022/07/27 08:40:31;;;;;;;3.73;3.40;;;28.50;63.50;;;;;;5063610;28;20264;-74
2022/07/27 08:43:14;;;;;;;3.60;3.23;;;28.50;62.20;;;;;;5059827;28;20211;-73
2022/07/27 08:45:57;;;;;;;6.03;3.37;;;28.50;61.80;;;;;;5062853;28;20217;-74
2022/07/27 08:48:26;;;;;;;3.13;2.90;;;28.50;63.20;;;;;;5059433;28;20482;-74
2022/07/27 08:50:54;;;;;;;3.87;3.37;;;28.60;61.80;;;;;;5060912;28;20275;-74
2022/07/27 08:53:22;;;;;;;3.83;3.47;;;28.80;61.50;;;;;;5064548;28;20208;-74
2022/07/27 08:55:49;;;;;;;4.20;3.80;;;28.90;61.50;;;;;;5059050;28;20228;-74
2022/07/27 08:58:17;;;;;;;4.33;3.77;;;29.00;61.80;;;;;;5064426;28;20209;-74
2022/07/27 09:00:47;;;;;;;3.90;3.60;;;29.20;62.10;;;;;;5063415;28;20212;-74
2022/07/27 09:03:16;;;;;;;3.47;3.17;;;29.40;62.40;;;;;;5062473;28;20202;-74
2022/07/27 09:05:52;;;;;;;3.50;3.20;;;29.70;60.90;;;;;;5064015;28;20198;-74
2022/07/27 09:08:26;;;;;;;4.20;3.13;;;29.90;60.00;;;;;;5068142;28;20212;-74
2022/07/27 09:10:58;;;;;;;4.63;3.27;;;30.10;59.00;;;;;;5058059;28;20226;-74
2022/07/27 09:13:27;;;;;;;5.13;3.40;;;30.30;57.50;;;;;;5062377;28;20289;-74
2022/07/27 09:16:00;;;;;;;3.80;3.40;;;30.50;56.60;;;;;;5065106;28;20356;-74
2022/07/27 09:18:46;;;;;;;4.43;4.03;;;30.70;56.70;;;;;;5063035;28;20195;-74
2022/07/27 09:21:19;;;;;;;4.50;3.30;;;30.80;55.90;;;;;;5059363;28;20687;-74
2022/07/27 09:24:04;;;;;;;3.63;3.27;;;30.80;55.70;;;;;;5062456;28;20198;-73
2022/07/27 09:27:01;;;;;;;3.47;3.17;;;30.90;56.00;;;;;;5065088;28;20224;-73
2022/07/27 09:29:34;;;;;;;3.53;3.23;;;31.10;55.20;;;;;;5063584;28;20220;-73
2022/07/27 09:32:15;;;;;;;3.43;3.13;;;31.20;54.80;;;;;;5059182;28;20623;-73
2022/07/27 09:34:43;;;;;;;2.83;2.63;;;31.40;54.50;;;;;;5061168;28;20293;-73
2022/07/27 09:37:21;;;;;;;3.47;3.17;;;31.50;53.50;;;;;;5061263;28;20198;-73
2022/07/27 09:39:48;;;;;;;2.90;2.60;;;31.60;53.50;;;;;;5065092;28;20198;-74
2022/07/27 09:42:19;;;;;;;3.43;3.10;;;31.70;53.90;;;;;;5064022;28;20679;-75
2022/07/27 09:45:30;;;;;;;3.37;3.00;;;31.80;52.80;;;;;;5064632;28;20284;-75
2022/07/27 09:48:17;;;;;;;2.80;2.60;;;31.90;53.10;;;;;;5062543;28;20210;-75
2022/07/27 09:51:07;;;;;;;3.53;3.23;;;31.90;52.70;;;;;;5078041;28;20210;-75
2022/07/27 09:53:57;;;;;;;3.27;2.97;;;32.00;53.20;;;;;;5062868;28;20194;-75
2022/07/27 09:56:31;;;;;;;4.10;3.23;;;32.00;52.70;;;;;;5060995;28;20680;-74
2022/07/27 09:59:01;;;;;;;2.80;2.50;;;32.00;52.00;;;;;;5062525;28;20245;-73
2022/07/27 10:01:33;;;;;;;3.43;2.07;;;31.90;50.90;;;;;;5064050;28;20237;-73
2022/07/27 10:04:06;;;;;;;4.23;2.63;;;31.70;51.20;;;;;;5062060;28;20213;-73
2022/07/27 10:06:33;;;;;;;2.53;2.23;;;31.60;52.20;;;;;;5059788;28;20205;-73
2022/07/27 10:09:21;;;;;;;2.80;2.43;;;31.50;52.40;;;;;;5060250;28;20199;-73
2022/07/27 10:11:48;;;;;;;3.13;2.57;;;31.40;52.80;;;;;;5065742;28;20617;-74
2022/07/27 10:14:16;;;;;;;3.80;2.90;;;31.50;51.60;;;;;;5061012;28;20726;-73
2022/07/27 10:16:48;;;;;;;2.33;2.13;;;31.50;51.10;;;;;;5065068;28;20194;-73
2022/07/27 10:19:34;;;;;;;3.60;2.70;;;31.70;51.20;;;;;;5065448;28;20226;-73
2022/07/27 10:22:01;;;;;;;2.63;2.33;;;31.80;51.80;;;;;;5065566;28;20206;-74
2022/07/27 10:24:32;;;;;;;2.50;2.30;;;32.00;50.10;;;;;;5060074;28;20904;-73
2022/07/27 10:27:17;;;;;;;2.30;2.20;;;32.30;50.20;;;;;;5063533;28;20677;-73
2022/07/27 10:29:46;;;;;;;2.77;2.50;;;32.40;49.50;;;;;;5062081;28;20615;-73
2022/07/27 10:32:26;;;;;;;3.50;2.70;;;32.40;48.70;;;;;;5068043;28;20650;-73
2022/07/27 10:34:54;;;;;;;2.70;2.50;;;32.30;48.50;;;;;;5066810;28;20230;-74
2022/07/27 10:37:29;;;;;;;3.27;2.67;;;32.10;49.30;;;;;;5068686;28;20209;-74
2022/07/27 10:42:46;;;;;;;3.97;2.67;;;32.00;48.80;;;;;;5065512;28;20197;-73
2022/07/27 10:45:20;;;;;;;3.87;2.60;;;32.00;49.30;;;;;;5069644;28;20236;-73
2022/07/27 10:47:51;;;;;;;4.27;2.57;;;32.10;49.40;;;;;;5053000;28;20713;-73
2022/07/27 10:50:22;;;;;;;3.10;2.80;;;32.20;50.10;;;;;;5065964;28;20229;-73
2022/07/27 10:52:55;;;;;;;2.77;2.50;;;32.30;49.00;;;;;;5067675;28;20241;-73
2022/07/27 10:55:28;;;;;;;2.90;2.70;;;32.30;48.50;;;;;;5062638;28;20286;-73
2022/07/27 10:57:57;;;;;;;3.10;2.90;;;32.40;48.00;;;;;;5068946;28;20263;-73
2022/07/27 11:00:49;;;;;;;3.47;2.63;;;32.40;48.20;;;;;;5060760;28;20234;-73
2022/07/27 11:03:33;;;;;;;3.10;2.90;;;32.40;48.90;;;;;;5065347;28;20218;-73
2022/07/27 11:06:16;;;;;;;3.27;3.00;;;32.50;49.20;;;;;;5064506;28;20695;-73
2022/07/27 11:09:03;;;;;;;3.33;3.03;;;32.50;47.70;;;;;;5052707;28;20644;-72
2022/07/27 11:11:52;;;;;;;3.60;3.30;;;32.50;47.30;;;;;;5043045;28;20231;-72
2022/07/27 11:14:20;;;;;;;3.10;2.80;;;32.50;47.80;;;;;;5047899;28;20199;-72
2022/07/27 11:16:58;;;;;;;4.97;3.10;;;32.40;48.20;;;;;;5048251;28;20257;-72
2022/07/27 11:19:54;;;;;;;3.93;3.00;;;32.40;46.90;;;;;;5039413;28;20245;-72
2022/07/27 11:22:31;;;;;;;3.03;2.83;;;32.40;48.10;;;;;;5049422;28;20206;-72
2022/07/27 11:25:18;;;;;;;2.67;2.47;;;32.40;48.50;;;;;;5046335;28;20237;-72
2022/07/27 11:27:50;;;;;;;4.87;2.53;;;32.40;47.00;;;;;;5051740;28;20278;-72
2022/07/27 11:30:27;;;;;;;3.00;2.80;;;32.50;47.90;;;;;;5042839;28;20210;-72
2022/07/27 11:32:55;;;;;;;2.70;2.50;;;32.70;47.80;;;;;;5038625;28;20190;-72
2022/07/27 11:35:23;;;;;;;2.70;2.50;;;32.90;47.60;;;;;;5064488;28;20202;-72
2022/07/27 11:38:01;;;;;;;2.93;2.70;;;33.10;47.60;;;;;;5042863;28;20207;-72
2022/07/27 11:40:42;;;;;;;4.77;3.13;;;33.30;47.10;;;;;;5044881;28;20210;-72
2022/07/27 11:43:40;;;;;;;3.83;3.00;;;33.50;46.60;;;;;;5040967;28;20725;-72
2022/07/27 11:46:17;;;;;;;4.00;2.90;;;33.50;46.30;;;;;;5044345;28;20212;-72
2022/07/27 11:49:00;;;;;;;3.70;3.40;;;33.50;46.80;;;;;;5051209;28;20212;-72
2022/07/27 11:51:35;;;;;;;2.73;2.53;;;33.60;46.40;;;;;;5054800;28;20566;-72
2022/07/27 11:54:05;;;;;;;3.53;3.00;;;33.70;46.30;;;;;;5049483;28;20195;-71
2022/07/27 11:56:34;;;;;;;3.37;2.50;;;33.80;44.90;;;;;;5055659;28;20290;-71
2022/07/27 11:59:01;;;;;;;4.10;2.63;;;33.90;45.50;;;;;;5047500;28;20665;-71
2022/07/27 12:01:44;;;;;;;3.43;3.13;;;34.00;45.50;;;;;;5044186;28;20199;-71
2022/07/27 12:04:21;;;;;;;2.87;2.67;;;34.20;45.90;;;;;;5050630;28;20202;-71
2022/07/27 12:06:59;;;;;;;3.00;2.70;;;34.30;45.60;;;;;;5044453;28;20206;-71
2022/07/27 12:09:28;;;;;;;3.37;3.07;;;34.40;45.60;;;;;;5057046;28;20233;-71
2022/07/27 12:12:19;;;;;;;3.83;3.10;;;34.50;45.20;;;;;;5045897;28;20249;-71
2022/07/27 12:14:49;;;;;;;3.53;3.10;;;34.60;44.10;;;;;;5043048;28;20207;-71
2022/07/27 12:17:17;;;;;;;4.93;2.87;;;34.70;44.40;;;;;;5052344;28;20716;-71
2022/07/27 12:19:57;;;;;;;3.60;3.07;;;34.70;44.20;;;;;;5053600;28;20209;-71
2022/07/27 12:22:44;;;;;;;2.90;2.70;;;34.70;44.50;;;;;;5046393;28;20202;-72
2022/07/27 12:25:18;;;;;;;3.47;3.20;;;34.80;44.30;;;;;;5056023;28;20253;-71
2022/07/27 12:28:05;;;;;;;3.10;2.90;;;34.80;43.50;;;;;;5056745;28;20200;-71
2022/07/27 12:30:36;;;;;;;3.70;3.23;;;34.70;44.30;;;;;;5045169;28;20216;-71
2022/07/27 12:33:25;;;;;;;3.80;3.07;;;34.70;45.70;;;;;;5041134;28;20227;-71
2022/07/27 12:35:52;;;;;;;3.13;2.93;;;34.70;44.80;;;;;;5047330;28;20195;-71
2022/07/27 12:38:20;;;;;;;3.73;3.33;;;34.60;43.30;;;;;;5040533;28;20210;-71
2022/07/27 12:40:54;;;;;;;4.93;3.50;;;34.60;44.20;;;;;;5044038;28;20195;-71
2022/07/27 12:43:27;;;;;;;3.53;3.23;;;34.40;44.00;;;;;;5042434;28;20207;-71
2022/07/27 12:45:54;;;;;;;3.37;3.07;;;34.30;44.40;;;;;;5045390;28;20203;-71
2022/07/27 12:48:26;;;;;;;6.77;2.70;;;34.30;43.70;;;;;;5047334;28;20205;-74
2022/07/27 12:51:07;;;;;;;4.60;3.17;;;34.20;44.40;;;;;;5042077;28;20223;-74
2022/07/27 12:53:36;;;;;;;3.03;2.83;;;34.10;44.50;;;;;;5042768;28;20210;-73
2022/07/27 12:56:11;;;;;;;3.53;3.23;;;34.00;44.70;;;;;;5058050;28;20206;-73
2022/07/27 12:58:38;;;;;;;3.77;3.20;;;34.00;45.00;;;;;;5044676;28;20229;-73
2022/07/27 13:01:06;;;;;;;3.83;3.23;;;33.80;44.60;;;;;;5046726;28;20212;-73
2022/07/27 13:03:34;;;;;;;4.10;3.73;;;33.90;44.70;;;;;;5051633;28;20459;-73
2022/07/27 13:06:03;;;;;;;3.87;3.43;;;33.80;45.10;;;;;;5042767;28;20654;-73
2022/07/27 13:08:38;;;;;;;3.73;3.43;;;33.90;45.50;;;;;;5041991;28;20516;-73
2022/07/27 13:11:06;;;;;;;3.60;3.30;;;33.90;46.30;;;;;;5038534;28;20233;-73
2022/07/27 13:13:33;;;;;;;3.47;3.07;;;34.00;46.10;;;;;;5047558;28;20207;-74
2022/07/27 13:16:00;;;;;;;3.03;2.83;;;34.00;44.60;;;;;;5047483;28;20214;-74
2022/07/27 13:18:27;;;;;;;3.90;3.57;;;34.00;45.20;;;;;;5045746;28;20196;-74
2022/07/27 13:20:54;;;;;;;3.70;3.40;;;34.00;44.80;;;;;;5052225;28;20205;-74
2022/07/27 13:23:21;;;;;;;4.00;3.57;;;33.90;44.90;;;;;;5052650;28;20715;-74